createdAt,value
2017-03-19T00:00:51.803Z,0
2017-03-19T00:01:53.044Z,0
2017-03-19T00:02:54.303Z,0
2017-03-19T00:03:55.542Z,0
2017-03-19T00:04:56.787Z,0
2017-03-19T00:05:58.052Z,0
2017-03-19T00:06:59.311Z,0
2017-03-19T00:08:00.618Z,0
2017-03-19T00:09:01.883Z,0
2017-03-19T00:10:03.126Z,0
2017-03-19T00:11:04.363Z,0
2017-03-19T00:12:05.595Z,0
2017-03-19T00:13:06.877Z,0
2017-03-19T00:14:08.099Z,0
2017-03-19T00:15:09.351Z,0
2017-03-19T00:16:10.586Z,0
2017-03-19T00:17:11.818Z,0
2017-03-19T00:18:13.072Z,0
2017-03-19T00:19:14.329Z,0
2017-03-19T00:20:15.613Z,0
2017-03-19T00:21:16.866Z,0
2017-03-19T00:22:18.103Z,0
2017-03-19T00:23:19.374Z,0
2017-03-19T00:24:20.592Z,0
2017-03-19T00:25:21.824Z,0
2017-03-19T00:26:23.105Z,0
2017-03-19T00:27:24.363Z,0
2017-03-19T00:28:25.652Z,0
2017-03-19T00:29:26.903Z,0
2017-03-19T00:30:28.162Z,0
2017-03-19T00:31:29.389Z,0
2017-03-19T00:32:30.701Z,0
2017-03-19T00:33:31.954Z,0
2017-03-19T00:34:33.225Z,0
2017-03-19T00:35:34.466Z,0
2017-03-19T00:36:35.704Z,0
2017-03-19T00:37:37.016Z,0
2017-03-19T00:38:38.295Z,0
2017-03-19T00:39:39.532Z,0
2017-03-19T00:40:40.770Z,0
2017-03-19T00:41:42.039Z,0
2017-03-19T00:42:43.281Z,0
2017-03-19T00:43:44.518Z,0
2017-03-19T00:44:45.941Z,0
2017-03-19T00:45:47.165Z,0
2017-03-19T00:46:48.467Z,0
2017-03-19T00:47:49.715Z,0
2017-03-19T00:48:50.957Z,0
2017-03-19T00:49:52.220Z,0
2017-03-19T00:50:53.460Z,0
2017-03-19T00:51:54.701Z,0
2017-03-19T00:52:55.943Z,0
2017-03-19T00:53:57.180Z,0
2017-03-19T00:54:58.412Z,0
2017-03-19T00:55:59.647Z,0
2017-03-19T00:57:01.084Z,0
2017-03-19T00:58:02.366Z,0
2017-03-19T00:59:03.689Z,0
2017-03-19T01:00:04.913Z,0
2017-03-19T01:01:06.162Z,0
2017-03-19T01:02:07.411Z,0
2017-03-19T01:03:08.743Z,0
2017-03-19T01:04:10.119Z,0
2017-03-19T01:05:11.359Z,0
2017-03-19T01:06:12.609Z,0
2017-03-19T01:07:13.839Z,0
2017-03-19T01:08:15.079Z,0
2017-03-19T01:09:16.333Z,0
2017-03-19T01:10:17.577Z,0
2017-03-19T01:11:18.828Z,0
2017-03-19T01:12:20.129Z,0
2017-03-19T01:13:21.371Z,0
2017-03-19T01:14:22.603Z,0
2017-03-19T01:15:23.932Z,0
2017-03-19T01:16:25.180Z,0
2017-03-19T01:17:26.469Z,0
2017-03-19T01:18:27.749Z,0
2017-03-19T01:19:28.992Z,0
2017-03-19T01:20:30.251Z,0
2017-03-19T01:21:31.478Z,0
2017-03-19T01:22:32.758Z,0
2017-03-19T01:23:33.995Z,0
2017-03-19T01:24:35.229Z,0
2017-03-19T01:25:36.462Z,0
2017-03-19T01:26:37.700Z,0
2017-03-19T01:27:38.922Z,0
2017-03-19T01:28:40.163Z,0
2017-03-19T01:29:41.421Z,0
2017-03-19T01:30:42.837Z,0
2017-03-19T01:31:44.080Z,0
2017-03-19T01:32:45.293Z,0
2017-03-19T01:33:46.536Z,0
2017-03-19T01:34:47.770Z,0
2017-03-19T01:35:48.995Z,0
2017-03-19T01:36:50.298Z,0
2017-03-19T01:37:51.537Z,0
2017-03-19T01:38:52.764Z,0
2017-03-19T01:39:54.006Z,0
2017-03-19T01:40:55.370Z,0
2017-03-19T01:41:56.669Z,0
2017-03-19T01:42:57.933Z,0
2017-03-19T01:43:59.173Z,0
2017-03-19T01:45:00.480Z,0
2017-03-19T01:46:01.719Z,0
2017-03-19T01:47:02.989Z,0
2017-03-19T01:48:04.303Z,0
2017-03-19T01:49:05.580Z,0
2017-03-19T01:50:06.820Z,0
2017-03-19T01:51:08.054Z,0
2017-03-19T01:52:09.332Z,0
2017-03-19T01:53:10.591Z,0
2017-03-19T01:54:11.811Z,0
2017-03-19T01:55:13.105Z,0
2017-03-19T01:56:14.352Z,0
2017-03-19T01:57:15.592Z,0
2017-03-19T01:58:16.827Z,0
2017-03-19T01:59:18.078Z,0
2017-03-19T02:00:19.345Z,0
2017-03-19T02:01:20.635Z,0
2017-03-19T02:02:21.912Z,0
2017-03-19T02:03:23.146Z,0
2017-03-19T02:04:24.408Z,0
2017-03-19T02:05:25.649Z,0
2017-03-19T02:06:26.902Z,0
2017-03-19T02:07:28.165Z,0
2017-03-19T02:08:29.429Z,0
2017-03-19T02:09:30.661Z,0
2017-03-19T02:10:31.902Z,0
2017-03-19T02:11:33.181Z,0
2017-03-19T02:12:34.440Z,0
2017-03-19T02:13:35.685Z,0
2017-03-19T02:14:37.069Z,0
2017-03-19T02:15:38.355Z,0
2017-03-19T02:16:39.599Z,0
2017-03-19T02:17:40.869Z,0
2017-03-19T02:18:42.124Z,0
2017-03-19T02:19:43.381Z,0
2017-03-19T02:20:44.621Z,0
2017-03-19T02:21:45.847Z,0
2017-03-19T02:22:47.106Z,0
2017-03-19T02:23:48.550Z,0
2017-03-19T02:24:49.878Z,0
2017-03-19T02:25:51.163Z,0
2017-03-19T02:26:52.473Z,0
2017-03-19T02:27:53.717Z,0
2017-03-19T02:28:54.962Z,0
2017-03-19T02:29:56.309Z,0
2017-03-19T02:30:57.527Z,0
2017-03-19T02:31:58.788Z,0
2017-03-19T02:33:00.018Z,0
2017-03-19T02:34:01.272Z,0
2017-03-19T02:35:02.545Z,0
2017-03-19T02:36:03.764Z,0
2017-03-19T02:37:05.122Z,0
2017-03-19T02:38:06.395Z,0
2017-03-19T02:39:07.731Z,0
2017-03-19T02:40:08.972Z,0
2017-03-19T02:41:10.215Z,0
2017-03-19T02:42:11.469Z,0
2017-03-19T02:43:12.759Z,0
2017-03-19T02:44:14.180Z,0
2017-03-19T02:45:15.415Z,0
2017-03-19T02:46:16.657Z,0
2017-03-19T02:47:17.894Z,0
2017-03-19T02:48:19.194Z,0
2017-03-19T02:49:20.545Z,0
2017-03-19T02:50:21.844Z,0
2017-03-19T02:51:23.083Z,0
2017-03-19T02:52:24.322Z,0
2017-03-19T02:53:25.560Z,0
2017-03-19T02:54:26.821Z,0
2017-03-19T02:55:28.171Z,0
2017-03-19T02:56:29.472Z,0
2017-03-19T02:57:30.796Z,0
2017-03-19T02:58:32.028Z,0
2017-03-19T02:59:33.317Z,0
2017-03-19T03:00:34.590Z,0
2017-03-19T03:01:35.837Z,0
2017-03-19T03:02:37.080Z,0
2017-03-19T03:03:38.313Z,0
2017-03-19T03:04:39.542Z,0
2017-03-19T03:05:40.799Z,0
2017-03-19T03:06:42.120Z,0
2017-03-19T03:07:43.375Z,0
2017-03-19T03:08:44.746Z,0
2017-03-19T03:09:46.031Z,0
2017-03-19T03:10:47.267Z,0
2017-03-19T03:11:48.508Z,0
2017-03-19T03:12:49.742Z,0
2017-03-19T03:13:51.004Z,0
2017-03-19T03:14:52.242Z,0
2017-03-19T03:15:53.491Z,0
2017-03-19T03:16:54.733Z,0
2017-03-19T03:17:55.996Z,0
2017-03-19T03:18:57.199Z,0
2017-03-19T03:19:58.468Z,0
2017-03-19T03:20:59.771Z,0
2017-03-19T03:22:01.070Z,0
2017-03-19T03:23:02.387Z,0
2017-03-19T03:24:03.617Z,0
2017-03-19T03:25:04.841Z,0
2017-03-19T03:26:06.167Z,0
2017-03-19T03:27:07.393Z,0
2017-03-19T03:28:08.677Z,0
2017-03-19T03:29:09.949Z,0
2017-03-19T03:30:11.190Z,0
2017-03-19T03:31:12.440Z,0
2017-03-19T03:32:13.664Z,0
2017-03-19T03:33:15.009Z,0
2017-03-19T03:34:16.315Z,0
2017-03-19T03:35:17.562Z,0
2017-03-19T03:36:18.794Z,0
2017-03-19T03:37:20.050Z,0
2017-03-19T03:38:21.288Z,0
2017-03-19T03:39:22.522Z,0
2017-03-19T03:40:23.821Z,0
2017-03-19T03:41:25.026Z,0
2017-03-19T03:42:26.269Z,0
2017-03-19T03:43:27.547Z,0
2017-03-19T03:44:28.776Z,0
2017-03-19T03:45:30.039Z,0
2017-03-19T03:46:31.277Z,0
2017-03-19T03:47:32.535Z,0
2017-03-19T03:48:33.761Z,0
2017-03-19T03:49:35.002Z,0
2017-03-19T03:50:36.263Z,0
2017-03-19T03:51:37.492Z,0
2017-03-19T03:52:38.760Z,0
2017-03-19T03:53:40.010Z,0
2017-03-19T03:54:41.251Z,0
2017-03-19T03:55:42.472Z,0
2017-03-19T03:56:43.722Z,0
2017-03-19T03:57:44.981Z,0
2017-03-19T03:58:46.285Z,0
2017-03-19T03:59:47.498Z,0
2017-03-19T04:00:48.765Z,0
2017-03-19T04:01:50.044Z,0
2017-03-19T04:02:51.275Z,0
2017-03-19T04:03:52.510Z,0
2017-03-19T04:04:53.745Z,0
2017-03-19T04:05:55.034Z,0
2017-03-19T04:06:56.287Z,0
2017-03-19T04:07:57.524Z,0
2017-03-19T04:08:58.811Z,0
2017-03-19T04:10:00.062Z,0
2017-03-19T04:11:01.314Z,0
2017-03-19T04:12:02.547Z,0
2017-03-19T04:13:03.781Z,0
2017-03-19T04:14:05.144Z,0
2017-03-19T04:15:06.387Z,0
2017-03-19T04:16:07.619Z,0
2017-03-19T04:17:08.862Z,0
2017-03-19T04:18:10.125Z,0
2017-03-19T04:19:11.359Z,0
2017-03-19T04:20:12.607Z,0
2017-03-19T04:21:13.840Z,0
2017-03-19T04:22:15.117Z,0
2017-03-19T04:23:16.409Z,0
2017-03-19T04:24:17.638Z,0
2017-03-19T04:25:18.969Z,0
2017-03-19T04:26:20.191Z,0
2017-03-19T04:27:21.426Z,0
2017-03-19T04:28:22.661Z,0
2017-03-19T04:29:23.901Z,0
2017-03-19T04:30:25.147Z,0
2017-03-19T04:31:26.398Z,0
2017-03-19T04:32:27.632Z,0
2017-03-19T04:33:28.926Z,0
2017-03-19T04:34:30.170Z,0
2017-03-19T04:35:31.403Z,0
2017-03-19T04:36:32.639Z,0
2017-03-19T04:37:33.905Z,0
2017-03-19T04:38:35.167Z,0
2017-03-19T04:39:36.434Z,0
2017-03-19T04:40:37.692Z,0
2017-03-19T04:41:38.916Z,0
2017-03-19T04:42:40.158Z,0
2017-03-19T04:43:41.398Z,0
2017-03-19T04:44:42.697Z,0
2017-03-19T04:45:44.217Z,0
2017-03-19T04:46:45.467Z,0
2017-03-19T04:47:46.723Z,0
2017-03-19T04:48:47.937Z,0
2017-03-19T04:49:49.191Z,0
2017-03-19T04:50:50.543Z,0
2017-03-19T04:51:51.793Z,0
2017-03-19T04:52:53.030Z,0
2017-03-19T04:53:54.268Z,0
2017-03-19T04:54:55.507Z,0
2017-03-19T04:55:56.801Z,0
2017-03-19T04:56:58.014Z,0
2017-03-19T04:57:59.281Z,0
2017-03-19T04:59:00.516Z,0
2017-03-19T05:00:01.749Z,0
2017-03-19T05:01:02.976Z,0
2017-03-19T05:02:04.313Z,0
2017-03-19T05:03:05.526Z,0
2017-03-19T05:04:06.916Z,0
2017-03-19T05:05:08.233Z,0
2017-03-19T05:06:09.466Z,0
2017-03-19T05:07:10.700Z,0
2017-03-19T05:08:11.960Z,0
2017-03-19T05:09:13.222Z,0
2017-03-19T05:10:14.507Z,0
2017-03-19T05:11:15.758Z,4
2017-03-19T05:12:16.997Z,4
2017-03-19T05:13:18.234Z,0
2017-03-19T05:14:19.570Z,0
2017-03-19T05:15:20.822Z,4
2017-03-19T05:16:22.152Z,8
2017-03-19T05:17:23.396Z,4
2017-03-19T05:18:24.629Z,8
2017-03-19T05:19:25.882Z,8
2017-03-19T05:20:27.162Z,8
2017-03-19T05:21:28.401Z,12
2017-03-19T05:22:29.741Z,12
2017-03-19T05:23:30.984Z,16
2017-03-19T05:24:32.229Z,20
2017-03-19T05:25:33.491Z,24
2017-03-19T05:26:34.734Z,28
2017-03-19T05:27:36.026Z,36
2017-03-19T05:28:37.374Z,36
2017-03-19T05:29:38.617Z,32
2017-03-19T05:30:39.868Z,32
2017-03-19T05:31:41.111Z,32
2017-03-19T05:32:42.420Z,36
2017-03-19T05:33:43.604Z,36
2017-03-19T05:34:44.846Z,48
2017-03-19T05:35:46.098Z,48
2017-03-19T05:36:47.334Z,56
2017-03-19T05:37:48.576Z,48
2017-03-19T05:38:49.814Z,68
2017-03-19T05:39:51.211Z,80
2017-03-19T05:40:52.486Z,68
2017-03-19T05:41:53.759Z,84
2017-03-19T05:42:54.974Z,92
2017-03-19T05:43:56.209Z,92
2017-03-19T05:44:57.459Z,112
2017-03-19T05:45:58.692Z,124
2017-03-19T05:47:00.021Z,152
2017-03-19T05:48:01.310Z,120
2017-03-19T05:49:02.708Z,104
2017-03-19T05:50:03.964Z,120
2017-03-19T05:51:05.206Z,132
2017-03-19T05:52:06.455Z,244
2017-03-19T05:53:07.722Z,240
2017-03-19T05:54:09.047Z,292
2017-03-19T05:55:10.282Z,376
2017-03-19T05:56:11.532Z,392
2017-03-19T05:57:12.750Z,384
2017-03-19T05:58:14.004Z,388
2017-03-19T05:59:15.292Z,368
2017-03-19T06:00:16.636Z,412
2017-03-19T06:01:17.871Z,408
2017-03-19T06:02:19.129Z,396
2017-03-19T06:03:20.377Z,340
2017-03-19T06:04:21.605Z,332
2017-03-19T06:05:22.935Z,372
2017-03-19T06:06:24.243Z,344
2017-03-19T06:07:25.486Z,332
2017-03-19T06:08:26.721Z,332
2017-03-19T06:09:27.968Z,300
2017-03-19T06:10:29.308Z,336
2017-03-19T06:11:30.549Z,392
2017-03-19T06:12:31.805Z,440
2017-03-19T06:13:33.037Z,336
2017-03-19T06:14:34.283Z,360
2017-03-19T06:15:35.533Z,356
2017-03-19T06:16:36.776Z,424
2017-03-19T06:17:38.047Z,492
2017-03-19T06:18:39.273Z,440
2017-03-19T06:19:40.522Z,584
2017-03-19T06:20:41.805Z,628
2017-03-19T06:21:43.017Z,652
2017-03-19T06:22:44.325Z,632
2017-03-19T06:23:45.506Z,644
2017-03-19T06:24:46.796Z,720
2017-03-19T06:25:48.039Z,804
2017-03-19T06:26:49.278Z,744
2017-03-19T06:27:50.553Z,656
2017-03-19T06:28:51.792Z,816
2017-03-19T06:29:53.044Z,792
2017-03-19T06:30:54.312Z,860
2017-03-19T06:31:55.545Z,816
2017-03-19T06:32:56.789Z,1036
2017-03-19T06:33:58.019Z,968
2017-03-19T06:34:59.251Z,992
2017-03-19T06:36:00.539Z,988
2017-03-19T06:37:01.746Z,856
2017-03-19T06:38:03.155Z,988
2017-03-19T06:39:04.435Z,808
2017-03-19T06:40:05.675Z,856
2017-03-19T06:41:06.929Z,1048
2017-03-19T06:42:08.172Z,1048
2017-03-19T06:43:09.440Z,1176
2017-03-19T06:44:10.828Z,1388
2017-03-19T06:45:12.079Z,1312
2017-03-19T06:46:13.320Z,1212
2017-03-19T06:47:14.559Z,1200
2017-03-19T06:48:15.800Z,1176
2017-03-19T06:49:17.098Z,1576
2017-03-19T06:50:18.342Z,1192
2017-03-19T06:51:19.623Z,1264
2017-03-19T06:52:20.840Z,996
2017-03-19T06:53:22.091Z,1076
2017-03-19T06:54:23.311Z,976
2017-03-19T06:55:24.603Z,1044
2017-03-19T06:56:25.814Z,1080
2017-03-19T06:57:27.159Z,1088
2017-03-19T06:58:28.410Z,968
2017-03-19T06:59:29.649Z,716
2017-03-19T07:00:30.888Z,684
2017-03-19T07:01:32.126Z,760
2017-03-19T07:02:33.406Z,860
2017-03-19T07:03:34.635Z,812
2017-03-19T07:04:35.877Z,876
2017-03-19T07:05:37.127Z,712
2017-03-19T07:06:38.364Z,768
2017-03-19T07:07:39.602Z,744
2017-03-19T07:08:40.834Z,880
2017-03-19T07:09:42.090Z,928
2017-03-19T07:10:43.358Z,980
2017-03-19T07:11:44.596Z,1012
2017-03-19T07:12:45.836Z,1332
2017-03-19T07:13:47.079Z,1412
2017-03-19T07:14:48.338Z,956
2017-03-19T07:15:49.582Z,1004
2017-03-19T07:16:50.842Z,1044
2017-03-19T07:17:52.096Z,792
2017-03-19T07:18:53.362Z,968
2017-03-19T07:19:54.583Z,1064
2017-03-19T07:20:55.816Z,1164
2017-03-19T07:21:57.101Z,1392
2017-03-19T07:22:58.350Z,996
2017-03-19T07:23:59.594Z,1084
2017-03-19T07:25:00.871Z,1168
2017-03-19T07:26:02.106Z,1164
2017-03-19T07:27:03.329Z,892
2017-03-19T07:28:04.577Z,1204
2017-03-19T07:29:05.823Z,1164
2017-03-19T07:30:07.063Z,1388
2017-03-19T07:31:08.303Z,1220
2017-03-19T07:32:09.542Z,1896
2017-03-19T07:33:10.803Z,1468
2017-03-19T07:34:12.050Z,1032
2017-03-19T07:35:13.280Z,1316
2017-03-19T07:36:14.751Z,1472
2017-03-19T07:37:16.017Z,1908
2017-03-19T07:38:17.316Z,2200
2017-03-19T07:39:18.556Z,1916
2017-03-19T07:40:19.798Z,1572
2017-03-19T07:41:21.046Z,1704
2017-03-19T07:42:22.294Z,1852
2017-03-19T07:43:23.536Z,2104
2017-03-19T07:44:24.777Z,2148
2017-03-19T07:45:26.004Z,2296
2017-03-19T07:46:27.250Z,2104
2017-03-19T07:47:28.493Z,2840
2017-03-19T07:48:29.729Z,3208
2017-03-19T07:49:31.019Z,3892
2017-03-19T07:50:32.367Z,2664
2017-03-19T07:51:33.598Z,2468
2017-03-19T07:52:34.866Z,3000
2017-03-19T07:53:36.102Z,3152
2017-03-19T07:54:37.355Z,2852
2017-03-19T07:55:38.816Z,3132
2017-03-19T07:56:40.052Z,2788
2017-03-19T07:57:41.332Z,2956
2017-03-19T07:58:42.645Z,2832
2017-03-19T07:59:43.909Z,2896
2017-03-19T08:00:45.159Z,2788
2017-03-19T08:01:46.489Z,3124
2017-03-19T08:02:47.719Z,3548
2017-03-19T08:03:48.968Z,3496
2017-03-19T08:04:50.226Z,3064
2017-03-19T08:05:51.456Z,2764
2017-03-19T08:06:52.724Z,2780
2017-03-19T08:07:53.981Z,2912
2017-03-19T08:08:55.237Z,2628
2017-03-19T08:09:56.494Z,2700
2017-03-19T08:10:57.720Z,2560
2017-03-19T08:11:58.990Z,2856
2017-03-19T08:13:00.238Z,2016
2017-03-19T08:14:01.522Z,2176
2017-03-19T08:15:02.802Z,2404
2017-03-19T08:16:04.020Z,1936
2017-03-19T08:17:05.261Z,1996
2017-03-19T08:18:06.592Z,1920
2017-03-19T08:19:07.977Z,2040
2017-03-19T08:20:09.228Z,1760
2017-03-19T08:21:10.554Z,1732
2017-03-19T08:22:11.792Z,1688
2017-03-19T08:23:13.030Z,1676
2017-03-19T08:24:14.361Z,1852
2017-03-19T08:25:15.598Z,1764
2017-03-19T08:26:16.869Z,1860
2017-03-19T08:27:18.118Z,2168
2017-03-19T08:28:19.354Z,1908
2017-03-19T08:29:20.654Z,1900
2017-03-19T08:30:21.844Z,1600
2017-03-19T08:31:23.194Z,1728
2017-03-19T08:32:24.544Z,1824
2017-03-19T08:33:25.777Z,2568
2017-03-19T08:34:27.045Z,2488
2017-03-19T08:35:28.298Z,2560
2017-03-19T08:36:29.541Z,2704
2017-03-19T08:37:30.829Z,2536
2017-03-19T08:38:32.083Z,2036
2017-03-19T08:39:33.317Z,2160
2017-03-19T08:40:34.585Z,2360
2017-03-19T08:41:35.818Z,2168
2017-03-19T08:42:37.066Z,2248
2017-03-19T08:43:38.358Z,2472
2017-03-19T08:44:39.603Z,2456
2017-03-19T08:45:40.868Z,2820
2017-03-19T08:46:42.127Z,2240
2017-03-19T08:47:43.348Z,1988
2017-03-19T08:48:44.637Z,2136
2017-03-19T08:49:45.849Z,1832
2017-03-19T08:50:47.126Z,1864
2017-03-19T08:51:48.417Z,2048
2017-03-19T08:52:49.631Z,2248
2017-03-19T08:53:50.906Z,2816
2017-03-19T08:54:52.125Z,2508
2017-03-19T08:55:53.379Z,2356
2017-03-19T08:56:54.673Z,2456
2017-03-19T08:57:55.929Z,2468
2017-03-19T08:58:57.175Z,2584
2017-03-19T08:59:58.460Z,2552
2017-03-19T09:00:59.692Z,2572
2017-03-19T09:02:00.942Z,2796
2017-03-19T09:03:02.258Z,2128
2017-03-19T09:04:03.488Z,2724
2017-03-19T09:05:04.758Z,2112
2017-03-19T09:06:06.061Z,2252
2017-03-19T09:07:07.297Z,2304
2017-03-19T09:08:08.614Z,2368
2017-03-19T09:09:09.995Z,2776
2017-03-19T09:10:11.286Z,3020
2017-03-19T09:11:12.555Z,2916
2017-03-19T09:12:13.817Z,2408
2017-03-19T09:13:15.021Z,2448
2017-03-19T09:14:16.288Z,2344
2017-03-19T09:15:17.528Z,2240
2017-03-19T09:16:18.785Z,2184
2017-03-19T09:17:20.028Z,1860
2017-03-19T09:18:21.283Z,2192
2017-03-19T09:19:22.566Z,2180
2017-03-19T09:20:23.814Z,2092
2017-03-19T09:21:25.216Z,2604
2017-03-19T09:22:26.475Z,2100
2017-03-19T09:23:27.712Z,1928
2017-03-19T09:24:28.960Z,2040
2017-03-19T09:25:30.222Z,1792
2017-03-19T09:26:31.492Z,1644
2017-03-19T09:27:32.730Z,1868
2017-03-19T09:28:33.987Z,2116
2017-03-19T09:29:35.227Z,2184
2017-03-19T09:30:36.497Z,2416
2017-03-19T09:31:37.759Z,2328
2017-03-19T09:32:38.988Z,1988
2017-03-19T09:33:40.315Z,2340
2017-03-19T09:34:41.547Z,1952
2017-03-19T09:35:42.891Z,1672
2017-03-19T09:36:44.141Z,1944
2017-03-19T09:37:45.377Z,1888
2017-03-19T09:38:46.623Z,1712
2017-03-19T09:39:47.883Z,1648
2017-03-19T09:40:49.148Z,2020
2017-03-19T09:41:50.401Z,1884
2017-03-19T09:42:51.656Z,2196
2017-03-19T09:43:52.877Z,1936
2017-03-19T09:44:54.100Z,2084
2017-03-19T09:45:55.384Z,1884
2017-03-19T09:46:56.646Z,1892
2017-03-19T09:47:57.891Z,1980
2017-03-19T09:48:59.135Z,2800
2017-03-19T09:50:00.399Z,4100
2017-03-19T09:51:01.651Z,3944
2017-03-19T09:52:02.896Z,3944
2017-03-19T09:53:04.164Z,2804
2017-03-19T09:54:05.508Z,3680
2017-03-19T09:55:06.756Z,3040
2017-03-19T09:56:08.014Z,3612
2017-03-19T09:57:09.239Z,4584
2017-03-19T09:58:10.484Z,3580
2017-03-19T09:59:11.708Z,3716
2017-03-19T10:00:13.040Z,3512
2017-03-19T10:01:14.293Z,3424
2017-03-19T10:02:15.567Z,3640
2017-03-19T10:03:16.782Z,4280
2017-03-19T10:04:18.047Z,3700
2017-03-19T10:05:19.296Z,3948
2017-03-19T10:06:20.571Z,3780
2017-03-19T10:07:21.812Z,4076
2017-03-19T10:08:23.069Z,5108
2017-03-19T10:09:24.307Z,5604
2017-03-19T10:10:25.542Z,4472
2017-03-19T10:11:26.801Z,5052
2017-03-19T10:12:28.113Z,4732
2017-03-19T10:13:29.384Z,4608
2017-03-19T10:14:30.650Z,4060
2017-03-19T10:15:31.883Z,4500
2017-03-19T10:16:33.125Z,5620
2017-03-19T10:17:34.419Z,5500
2017-03-19T10:18:35.659Z,4796
2017-03-19T10:19:36.960Z,4116
2017-03-19T10:20:38.222Z,5328
2017-03-19T10:21:39.444Z,4732
2017-03-19T10:22:40.703Z,5664
2017-03-19T10:23:41.942Z,3996
2017-03-19T10:24:43.244Z,4024
2017-03-19T10:25:44.511Z,3600
2017-03-19T10:26:45.788Z,3276
2017-03-19T10:27:47.034Z,2048
2017-03-19T10:28:48.266Z,2212
2017-03-19T10:29:49.608Z,2336
2017-03-19T10:30:50.918Z,2584
2017-03-19T10:31:52.231Z,2808
2017-03-19T10:32:53.441Z,2112
2017-03-19T10:33:54.788Z,2420
2017-03-19T10:34:56.022Z,2336
2017-03-19T10:35:57.263Z,2268
2017-03-19T10:36:58.504Z,2116
2017-03-19T10:37:59.751Z,2252
2017-03-19T10:39:00.997Z,2156
2017-03-19T10:40:02.249Z,2140
2017-03-19T10:41:03.500Z,2616
2017-03-19T10:42:04.753Z,2308
2017-03-19T10:43:06.005Z,2488
2017-03-19T10:44:07.307Z,2172
2017-03-19T10:45:08.536Z,2468
2017-03-19T10:46:09.802Z,2448
2017-03-19T10:47:11.058Z,2908
2017-03-19T10:48:12.294Z,2316
2017-03-19T10:49:13.532Z,1872
2017-03-19T10:50:14.783Z,2376
2017-03-19T10:51:16.019Z,2912
2017-03-19T10:52:17.262Z,2428
2017-03-19T10:53:18.501Z,2252
2017-03-19T10:54:19.734Z,2952
2017-03-19T10:55:20.975Z,2216
2017-03-19T10:56:22.307Z,2080
2017-03-19T10:57:23.550Z,2920
2017-03-19T10:58:24.793Z,2176
2017-03-19T10:59:26.045Z,3088
2017-03-19T11:00:27.296Z,2632
2017-03-19T11:01:28.622Z,4024
2017-03-19T11:02:29.809Z,4528
2017-03-19T11:03:31.184Z,2856
2017-03-19T11:04:32.429Z,2872
2017-03-19T11:05:33.658Z,5032
2017-03-19T11:06:34.902Z,4200
2017-03-19T11:07:36.127Z,2676
2017-03-19T11:08:37.376Z,2676
2017-03-19T11:09:38.629Z,2684
2017-03-19T11:10:39.868Z,2872
2017-03-19T11:11:41.113Z,3512
2017-03-19T11:12:42.352Z,3136
2017-03-19T11:13:43.589Z,3536
2017-03-19T11:14:44.871Z,3684
2017-03-19T11:15:46.277Z,2792
2017-03-19T11:16:47.520Z,3740
2017-03-19T11:17:48.787Z,3008
2017-03-19T11:18:50.023Z,3228
2017-03-19T11:19:51.259Z,3540
2017-03-19T11:20:52.562Z,3848
2017-03-19T11:21:53.792Z,5820
2017-03-19T11:22:55.094Z,5520
2017-03-19T11:23:56.386Z,6252
2017-03-19T11:24:57.642Z,6248
2017-03-19T11:25:58.907Z,6344
2017-03-19T11:27:00.153Z,8608
2017-03-19T11:28:01.399Z,8332
2017-03-19T11:29:02.756Z,8356
2017-03-19T11:30:03.983Z,8356
2017-03-19T11:31:05.232Z,8716
2017-03-19T11:32:06.476Z,7928
2017-03-19T11:33:07.726Z,8688
2017-03-19T11:34:08.967Z,9444
2017-03-19T11:35:10.233Z,9328
2017-03-19T11:36:11.550Z,11104
2017-03-19T11:37:12.784Z,14308
2017-03-19T11:38:14.019Z,7924
2017-03-19T11:39:15.260Z,7232
2017-03-19T11:40:16.528Z,7164
2017-03-19T11:41:17.767Z,6216
2017-03-19T11:42:19.020Z,6584
2017-03-19T11:43:20.360Z,5468
2017-03-19T11:44:21.599Z,5292
2017-03-19T11:45:22.839Z,6272
2017-03-19T11:46:24.096Z,7484
2017-03-19T11:47:25.363Z,8036
2017-03-19T11:48:26.603Z,7624
2017-03-19T11:49:27.852Z,8400
2017-03-19T11:50:29.108Z,6884
2017-03-19T11:51:30.348Z,5520
2017-03-19T11:52:31.566Z,4584
2017-03-19T11:53:32.838Z,4016
2017-03-19T11:54:34.100Z,3144
2017-03-19T11:55:35.367Z,2552
2017-03-19T11:56:36.711Z,3064
2017-03-19T11:57:37.957Z,3432
2017-03-19T11:58:39.212Z,4200
2017-03-19T11:59:40.535Z,3644
2017-03-19T12:00:41.796Z,3216
2017-03-19T12:01:43.078Z,3088
2017-03-19T12:02:44.352Z,3776
2017-03-19T12:03:45.612Z,4064
2017-03-19T12:04:46.828Z,3620
2017-03-19T12:05:48.065Z,2860
2017-03-19T12:06:49.335Z,2476
2017-03-19T12:07:50.577Z,2208
2017-03-19T12:08:51.814Z,2028
2017-03-19T12:09:53.061Z,2028
2017-03-19T12:10:54.304Z,2440
2017-03-19T12:11:55.570Z,2992
2017-03-19T12:12:56.865Z,2544
2017-03-19T12:13:58.211Z,2268
2017-03-19T12:14:59.456Z,2372
2017-03-19T12:16:00.808Z,3360
2017-03-19T12:17:02.047Z,3476
2017-03-19T12:18:03.295Z,2136
2017-03-19T12:19:04.541Z,2524
2017-03-19T12:20:05.945Z,2220
2017-03-19T12:21:07.061Z,2268
2017-03-19T12:22:08.294Z,2660
2017-03-19T12:23:09.535Z,3356
2017-03-19T12:24:10.866Z,3768
2017-03-19T12:25:12.103Z,3628
2017-03-19T12:26:13.347Z,3860
2017-03-19T12:27:14.611Z,3660
2017-03-19T12:28:15.852Z,3092
2017-03-19T12:29:17.091Z,3072
2017-03-19T12:30:18.359Z,3600
2017-03-19T12:31:19.624Z,3204
2017-03-19T12:32:20.856Z,3180
2017-03-19T12:33:22.138Z,2444
2017-03-19T12:34:23.374Z,2808
2017-03-19T12:35:24.625Z,3216
2017-03-19T12:36:25.877Z,2688
2017-03-19T12:37:27.106Z,3732
2017-03-19T12:38:28.358Z,3060
2017-03-19T12:39:29.620Z,3532
2017-03-19T12:40:30.850Z,3696
2017-03-19T12:41:32.113Z,2608
2017-03-19T12:42:33.352Z,2132
2017-03-19T12:43:34.637Z,3108
2017-03-19T12:44:35.853Z,3540
2017-03-19T12:45:37.137Z,3708
2017-03-19T12:46:38.464Z,3136
2017-03-19T12:47:39.673Z,2820
2017-03-19T12:48:40.912Z,2488
2017-03-19T12:49:42.152Z,2252
2017-03-19T12:50:43.426Z,2232
2017-03-19T12:51:44.662Z,2112
2017-03-19T12:52:45.951Z,3380
2017-03-19T12:53:47.250Z,4068
2017-03-19T12:54:48.531Z,4088
2017-03-19T12:55:49.764Z,3356
2017-03-19T12:56:51.012Z,3472
2017-03-19T12:57:52.375Z,3284
2017-03-19T12:58:53.646Z,2984
2017-03-19T12:59:54.886Z,2584
2017-03-19T13:00:56.127Z,2172
2017-03-19T13:01:57.368Z,1644
2017-03-19T13:02:58.618Z,1648
2017-03-19T13:03:59.886Z,1788
2017-03-19T13:05:01.231Z,2264
2017-03-19T13:06:02.501Z,2988
2017-03-19T13:07:03.765Z,3676
2017-03-19T13:08:05.020Z,4404
2017-03-19T13:09:06.283Z,4160
2017-03-19T13:10:07.674Z,4792
2017-03-19T13:11:09.138Z,3844
2017-03-19T13:12:10.374Z,4436
2017-03-19T13:13:11.607Z,5012
2017-03-19T13:14:12.865Z,5324
2017-03-19T13:15:14.135Z,6388
2017-03-19T13:16:15.373Z,7416
2017-03-19T13:17:16.635Z,8756
2017-03-19T13:18:17.870Z,11796
2017-03-19T13:19:19.134Z,7852
2017-03-19T13:20:20.378Z,6832
2017-03-19T13:21:21.624Z,8800
2017-03-19T13:22:22.892Z,9368
2017-03-19T13:23:24.135Z,10188
2017-03-19T13:24:25.390Z,9440
2017-03-19T13:25:26.614Z,10628
2017-03-19T13:26:27.853Z,9692
2017-03-19T13:27:29.100Z,9836
2017-03-19T13:28:30.413Z,10132
2017-03-19T13:29:31.615Z,10456
2017-03-19T13:30:32.864Z,8384
2017-03-19T13:31:34.107Z,7764
2017-03-19T13:32:35.349Z,9364
2017-03-19T13:33:36.597Z,8628
2017-03-19T13:34:37.840Z,8796
2017-03-19T13:35:39.147Z,9460
2017-03-19T13:36:40.495Z,9508
2017-03-19T13:37:41.751Z,10344
2017-03-19T13:38:43.015Z,9720
2017-03-19T13:39:44.295Z,7996
2017-03-19T13:40:45.504Z,8344
2017-03-19T13:41:46.944Z,7260
2017-03-19T13:42:48.222Z,6792
2017-03-19T13:43:49.453Z,7696
2017-03-19T13:44:50.689Z,9852
2017-03-19T13:45:51.929Z,9460
2017-03-19T13:46:53.179Z,8720
2017-03-19T13:47:54.431Z,7928
2017-03-19T13:48:55.682Z,8520
2017-03-19T13:49:56.912Z,8848
2017-03-19T13:50:58.194Z,7656
2017-03-19T13:51:59.410Z,6632
2017-03-19T13:53:00.754Z,6604
2017-03-19T13:54:02.028Z,5388
2017-03-19T13:55:03.301Z,4476
2017-03-19T13:56:04.545Z,3960
2017-03-19T13:57:05.791Z,4212
2017-03-19T13:58:07.026Z,3736
2017-03-19T13:59:08.268Z,3736
2017-03-19T14:00:09.534Z,3576
2017-03-19T14:01:10.765Z,4876
2017-03-19T14:02:12.027Z,4312
2017-03-19T14:03:13.270Z,2876
2017-03-19T14:04:14.500Z,1932
2017-03-19T14:05:15.761Z,1872
2017-03-19T14:06:17.039Z,2116
2017-03-19T14:07:18.288Z,2720
2017-03-19T14:08:19.530Z,4332
2017-03-19T14:09:20.777Z,5416
2017-03-19T14:10:22.018Z,5520
2017-03-19T14:11:23.285Z,5712